sensor_id;sensor_type;location;lat;lon;timestamp;P1;durP1;ratioP1;P2;durP2;ratioP2
46290;SDS011;32023;44.444;26.006;2022-09-03T00:05:45;10.80;;;4.55;;
46290;SDS011;32023;44.444;26.006;2022-09-03T00:08:35;8.98;;;4.85;;
46290;SDS011;32023;44.444;26.006;2022-09-03T00:14:27;10.85;;;4.95;;
46290;SDS011;32023;44.444;26.006;2022-09-03T00:20:33;11.50;;;5.22;;
46290;SDS011;32023;44.444;26.006;2022-09-03T00:23:06;10.32;;;4.82;;
46290;SDS011;32023;44.444;26.006;2022-09-03T00:28:39;11.10;;;5.38;;
46290;SDS011;32023;44.444;26.006;2022-09-03T00:31:29;8.90;;;4.53;;
46290;SDS011;32023;44.444;26.006;2022-09-03T00:34:16;11.93;;;4.43;;
46290;SDS011;32023;44.444;26.006;2022-09-03T00:36:51;12.38;;;4.60;;
46290;SDS011;32023;44.444;26.006;2022-09-03T00:39:19;7.70;;;4.75;;
46290;SDS011;32023;44.444;26.006;2022-09-03T00:44:42;10.23;;;5.13;;
46290;SDS011;32023;44.444;26.006;2022-09-03T00:47:32;8.05;;;5.03;;
46290;SDS011;32023;44.444;26.006;2022-09-03T00:53:23;8.88;;;4.55;;
46290;SDS011;32023;44.444;26.006;2022-09-03T01:02:30;6.45;;;4.30;;
46290;SDS011;32023;44.444;26.006;2022-09-03T01:05:08;12.18;;;4.90;;
46290;SDS011;32023;44.444;26.006;2022-09-03T01:13:38;8.68;;;4.15;;
46290;SDS011;32023;44.444;26.006;2022-09-03T01:16:23;7.47;;;4.28;;
46290;SDS011;32023;44.444;26.006;2022-09-03T01:24:44;6.80;;;4.88;;
46290;SDS011;32023;44.444;26.006;2022-09-03T01:27:43;8.88;;;4.10;;
46290;SDS011;32023;44.444;26.006;2022-09-03T01:30:17;6.18;;;4.38;;
46290;SDS011;32023;44.444;26.006;2022-09-03T01:32:56;7.00;;;4.20;;
46290;SDS011;32023;44.444;26.006;2022-09-03T01:41:17;7.50;;;4.22;;
46290;SDS011;32023;44.444;26.006;2022-09-03T01:44:18;8.25;;;4.03;;
46290;SDS011;32023;44.444;26.006;2022-09-03T01:47:10;9.30;;;4.93;;
46290;SDS011;32023;44.444;26.006;2022-09-03T01:50:09;8.25;;;4.57;;
46290;SDS011;32023;44.444;26.006;2022-09-03T01:53:08;10.73;;;4.20;;
46290;SDS011;32023;44.444;26.006;2022-09-03T02:05:00;9.43;;;4.53;;
46290;SDS011;32023;44.444;26.006;2022-09-03T02:07:30;6.97;;;3.72;;
46290;SDS011;32023;44.444;26.006;2022-09-03T02:10:00;7.65;;;4.45;;
46290;SDS011;32023;44.444;26.006;2022-09-03T02:15:24;7.90;;;4.13;;
46290;SDS011;32023;44.444;26.006;2022-09-03T02:17:55;6.35;;;4.25;;
46290;SDS011;32023;44.444;26.006;2022-09-03T02:20:26;8.95;;;4.47;;
46290;SDS011;32023;44.444;26.006;2022-09-03T02:23:02;7.95;;;3.90;;
46290;SDS011;32023;44.444;26.006;2022-09-03T02:25:31;10.25;;;4.03;;
46290;SDS011;32023;44.444;26.006;2022-09-03T02:28:05;8.50;;;4.50;;
46290;SDS011;32023;44.444;26.006;2022-09-03T02:30:33;4.60;;;3.60;;
46290;SDS011;32023;44.444;26.006;2022-09-03T02:32:59;8.85;;;4.35;;
46290;SDS011;32023;44.444;26.006;2022-09-03T02:35:26;8.60;;;4.50;;
46290;SDS011;32023;44.444;26.006;2022-09-03T02:37:53;5.53;;;3.90;;
46290;SDS011;32023;44.444;26.006;2022-09-03T02:40:35;8.02;;;4.30;;
46290;SDS011;32023;44.444;26.006;2022-09-03T02:43:02;9.00;;;4.57;;
46290;SDS011;32023;44.444;26.006;2022-09-03T02:45:34;7.97;;;3.80;;
46290;SDS011;32023;44.444;26.006;2022-09-03T02:48:07;7.75;;;4.00;;
46290;SDS011;32023;44.444;26.006;2022-09-03T02:50:41;7.22;;;4.28;;
46290;SDS011;32023;44.444;26.006;2022-09-03T02:53:10;7.43;;;3.70;;
46290;SDS011;32023;44.444;26.006;2022-09-03T02:55:37;9.35;;;4.60;;
46290;SDS011;32023;44.444;26.006;2022-09-03T02:58:04;9.95;;;4.55;;
46290;SDS011;32023;44.444;26.006;2022-09-03T03:00:31;6.45;;;4.32;;
46290;SDS011;32023;44.444;26.006;2022-09-03T03:03:00;7.72;;;4.38;;
46290;SDS011;32023;44.444;26.006;2022-09-03T03:05:47;7.68;;;4.07;;
46290;SDS011;32023;44.444;26.006;2022-09-03T03:08:16;11.52;;;3.92;;
46290;SDS011;32023;44.444;26.006;2022-09-03T03:10:45;6.63;;;3.33;;
46290;SDS011;32023;44.444;26.006;2022-09-03T03:13:14;8.07;;;3.65;;
46290;SDS011;32023;44.444;26.006;2022-09-03T03:15:42;10.07;;;4.07;;
46290;SDS011;32023;44.444;26.006;2022-09-03T03:18:14;8.43;;;4.03;;
46290;SDS011;32023;44.444;26.006;2022-09-03T03:20:50;6.63;;;3.75;;
46290;SDS011;32023;44.444;26.006;2022-09-03T03:23:19;8.43;;;3.50;;
46290;SDS011;32023;44.444;26.006;2022-09-03T03:25:48;5.65;;;3.63;;
46290;SDS011;32023;44.444;26.006;2022-09-03T03:28:40;6.70;;;3.95;;
46290;SDS011;32023;44.444;26.006;2022-09-03T03:31:13;8.68;;;4.55;;
46290;SDS011;32023;44.444;26.006;2022-09-03T03:33:42;8.07;;;4.22;;
46290;SDS011;32023;44.444;26.006;2022-09-03T03:36:11;8.55;;;4.10;;
46290;SDS011;32023;44.444;26.006;2022-09-03T03:38:40;6.10;;;3.97;;
46290;SDS011;32023;44.444;26.006;2022-09-03T03:41:11;10.23;;;4.57;;
46290;SDS011;32023;44.444;26.006;2022-09-03T03:43:39;8.77;;;3.75;;
46290;SDS011;32023;44.444;26.006;2022-09-03T03:46:06;8.35;;;4.15;;
46290;SDS011;32023;44.444;26.006;2022-09-03T03:48:46;6.82;;;4.20;;
46290;SDS011;32023;44.444;26.006;2022-09-03T03:51:16;7.78;;;4.20;;
46290;SDS011;32023;44.444;26.006;2022-09-03T03:53:44;6.03;;;3.83;;
46290;SDS011;32023;44.444;26.006;2022-09-03T03:56:12;7.53;;;3.97;;
46290;SDS011;32023;44.444;26.006;2022-09-03T03:58:40;6.68;;;4.20;;
46290;SDS011;32023;44.444;26.006;2022-09-03T04:03:57;8.32;;;4.13;;
46290;SDS011;32023;44.444;26.006;2022-09-03T04:09:06;7.72;;;3.95;;
46290;SDS011;32023;44.444;26.006;2022-09-03T04:11:35;8.30;;;4.47;;
46290;SDS011;32023;44.444;26.006;2022-09-03T04:14:07;6.95;;;4.05;;
46290;SDS011;32023;44.444;26.006;2022-09-03T04:16:36;7.90;;;4.28;;
46290;SDS011;32023;44.444;26.006;2022-09-03T04:19:03;6.95;;;4.45;;
46290;SDS011;32023;44.444;26.006;2022-09-03T04:21:29;9.05;;;4.18;;
46290;SDS011;32023;44.444;26.006;2022-09-03T04:23:56;6.75;;;4.00;;
46290;SDS011;32023;44.444;26.006;2022-09-03T04:26:24;5.57;;;3.88;;
46290;SDS011;32023;44.444;26.006;2022-09-03T04:28:55;9.77;;;3.97;;
46290;SDS011;32023;44.444;26.006;2022-09-03T04:31:27;8.43;;;3.83;;
46290;SDS011;32023;44.444;26.006;2022-09-03T04:34:00;7.45;;;4.28;;
46290;SDS011;32023;44.444;26.006;2022-09-03T04:36:27;6.60;;;4.10;;
46290;SDS011;32023;44.444;26.006;2022-09-03T04:38:56;7.50;;;4.05;;
46290;SDS011;32023;44.444;26.006;2022-09-03T04:41:25;7.68;;;4.28;;
46290;SDS011;32023;44.444;26.006;2022-09-03T04:43:54;9.40;;;4.32;;
46290;SDS011;32023;44.444;26.006;2022-09-03T04:46:22;8.10;;;4.53;;
46290;SDS011;32023;44.444;26.006;2022-09-03T04:48:51;6.82;;;4.47;;
46290;SDS011;32023;44.444;26.006;2022-09-03T04:51:20;8.63;;;4.53;;
46290;SDS011;32023;44.444;26.006;2022-09-03T04:53:51;6.50;;;4.25;;
46290;SDS011;32023;44.444;26.006;2022-09-03T04:56:22;9.88;;;4.30;;
46290;SDS011;32023;44.444;26.006;2022-09-03T04:59:03;7.18;;;3.88;;
46290;SDS011;32023;44.444;26.006;2022-09-03T05:01:39;10.98;;;4.07;;
46290;SDS011;32023;44.444;26.006;2022-09-03T05:04:07;8.57;;;4.30;;
46290;SDS011;32023;44.444;26.006;2022-09-03T05:06:40;8.48;;;4.05;;
46290;SDS011;32023;44.444;26.006;2022-09-03T05:09:07;7.47;;;3.72;;
46290;SDS011;32023;44.444;26.006;2022-09-03T05:11:36;8.18;;;4.00;;
46290;SDS011;32023;44.444;26.006;2022-09-03T05:14:18;6.43;;;4.20;;
46290;SDS011;32023;44.444;26.006;2022-09-03T05:16:44;9.18;;;4.43;;
46290;SDS011;32023;44.444;26.006;2022-09-03T05:19:14;6.70;;;3.83;;
46290;SDS011;32023;44.444;26.006;2022-09-03T05:21:45;11.02;;;3.95;;
46290;SDS011;32023;44.444;26.006;2022-09-03T05:24:12;6.72;;;4.05;;
46290;SDS011;32023;44.444;26.006;2022-09-03T05:26:39;12.13;;;4.15;;
46290;SDS011;32023;44.444;26.006;2022-09-03T05:29:06;7.28;;;4.43;;
46290;SDS011;32023;44.444;26.006;2022-09-03T05:31:37;6.18;;;4.22;;
46290;SDS011;32023;44.444;26.006;2022-09-03T05:34:06;5.90;;;3.80;;
46290;SDS011;32023;44.444;26.006;2022-09-03T05:36:35;10.05;;;4.63;;
46290;SDS011;32023;44.444;26.006;2022-09-03T05:39:05;8.20;;;3.85;;
46290;SDS011;32023;44.444;26.006;2022-09-03T05:41:32;6.47;;;4.30;;
46290;SDS011;32023;44.444;26.006;2022-09-03T05:43:58;6.72;;;3.97;;
46290;SDS011;32023;44.444;26.006;2022-09-03T05:46:29;6.85;;;4.25;;
46290;SDS011;32023;44.444;26.006;2022-09-03T05:49:02;7.32;;;4.40;;
46290;SDS011;32023;44.444;26.006;2022-09-03T05:51:31;6.25;;;3.22;;
46290;SDS011;32023;44.444;26.006;2022-09-03T05:53:59;7.53;;;4.10;;
46290;SDS011;32023;44.444;26.006;2022-09-03T05:56:27;6.40;;;3.78;;
46290;SDS011;32023;44.444;26.006;2022-09-03T05:58:57;6.97;;;3.88;;
46290;SDS011;32023;44.444;26.006;2022-09-03T06:01:27;6.78;;;3.85;;
46290;SDS011;32023;44.444;26.006;2022-09-03T06:03:57;7.80;;;3.95;;
46290;SDS011;32023;44.444;26.006;2022-09-03T06:06:37;6.57;;;3.80;;
46290;SDS011;32023;44.444;26.006;2022-09-03T06:09:14;9.25;;;3.85;;
46290;SDS011;32023;44.444;26.006;2022-09-03T06:11:44;6.30;;;3.70;;
46290;SDS011;32023;44.444;26.006;2022-09-03T06:14:16;5.65;;;3.75;;
46290;SDS011;32023;44.444;26.006;2022-09-03T06:16:43;7.35;;;3.80;;
46290;SDS011;32023;44.444;26.006;2022-09-03T06:19:13;6.95;;;3.60;;
46290;SDS011;32023;44.444;26.006;2022-09-03T06:21:41;6.57;;;3.78;;
46290;SDS011;32023;44.444;26.006;2022-09-03T06:24:09;8.88;;;4.38;;
46290;SDS011;32023;44.444;26.006;2022-09-03T06:26:40;6.28;;;3.83;;
46290;SDS011;32023;44.444;26.006;2022-09-03T06:29:07;7.13;;;4.03;;
46290;SDS011;32023;44.444;26.006;2022-09-03T06:31:33;9.77;;;4.05;;
46290;SDS011;32023;44.444;26.006;2022-09-03T06:34:00;8.30;;;4.20;;
46290;SDS011;32023;44.444;26.006;2022-09-03T06:36:29;9.48;;;3.83;;
46290;SDS011;32023;44.444;26.006;2022-09-03T06:38:55;5.68;;;3.65;;
46290;SDS011;32023;44.444;26.006;2022-09-03T06:41:26;7.72;;;3.92;;
46290;SDS011;32023;44.444;26.006;2022-09-03T06:43:56;6.75;;;3.92;;
46290;SDS011;32023;44.444;26.006;2022-09-03T06:46:27;9.27;;;4.20;;
46290;SDS011;32023;44.444;26.006;2022-09-03T06:49:03;5.90;;;3.45;;
46290;SDS011;32023;44.444;26.006;2022-09-03T06:51:30;7.38;;;3.97;;
46290;SDS011;32023;44.444;26.006;2022-09-03T06:54:01;8.30;;;3.83;;
46290;SDS011;32023;44.444;26.006;2022-09-03T06:56:40;7.53;;;4.07;;
46290;SDS011;32023;44.444;26.006;2022-09-03T06:59:27;6.57;;;3.60;;
46290;SDS011;32023;44.444;26.006;2022-09-03T07:01:53;8.13;;;3.88;;
46290;SDS011;32023;44.444;26.006;2022-09-03T07:04:22;9.07;;;3.65;;
46290;SDS011;32023;44.444;26.006;2022-09-03T07:06:51;5.80;;;3.67;;
46290;SDS011;32023;44.444;26.006;2022-09-03T07:09:17;6.78;;;3.95;;
46290;SDS011;32023;44.444;26.006;2022-09-03T07:11:44;8.25;;;3.78;;
46290;SDS011;32023;44.444;26.006;2022-09-03T07:14:14;7.22;;;3.88;;
46290;SDS011;32023;44.444;26.006;2022-09-03T07:16:45;8.55;;;3.90;;
46290;SDS011;32023;44.444;26.006;2022-09-03T07:19:16;7.38;;;4.53;;
46290;SDS011;32023;44.444;26.006;2022-09-03T07:21:42;5.63;;;4.05;;
46290;SDS011;32023;44.444;26.006;2022-09-03T07:24:12;7.82;;;3.72;;
46290;SDS011;32023;44.444;26.006;2022-09-03T07:26:39;6.63;;;3.60;;
46290;SDS011;32023;44.444;26.006;2022-09-03T07:29:08;7.05;;;4.05;;
46290;SDS011;32023;44.444;26.006;2022-09-03T07:31:38;7.30;;;3.90;;
46290;SDS011;32023;44.444;26.006;2022-09-03T07:34:07;5.63;;;4.03;;
46290;SDS011;32023;44.444;26.006;2022-09-03T07:36:56;7.28;;;4.25;;
46290;SDS011;32023;44.444;26.006;2022-09-03T07:39:39;7.53;;;3.97;;
46290;SDS011;32023;44.444;26.006;2022-09-03T07:42:17;7.60;;;4.25;;
46290;SDS011;32023;44.444;26.006;2022-09-03T07:44:59;7.22;;;4.20;;
46290;SDS011;32023;44.444;26.006;2022-09-03T07:47:29;6.28;;;3.65;;
46290;SDS011;32023;44.444;26.006;2022-09-03T07:50:15;6.78;;;3.80;;
46290;SDS011;32023;44.444;26.006;2022-09-03T07:52:41;6.63;;;4.60;;
46290;SDS011;32023;44.444;26.006;2022-09-03T07:55:27;11.65;;;4.25;;
46290;SDS011;32023;44.444;26.006;2022-09-03T07:58:00;7.78;;;4.07;;
46290;SDS011;32023;44.444;26.006;2022-09-03T08:00:44;7.45;;;4.13;;
46290;SDS011;32023;44.444;26.006;2022-09-03T08:03:11;6.65;;;3.67;;
46290;SDS011;32023;44.444;26.006;2022-09-03T08:05:43;8.70;;;4.10;;
46290;SDS011;32023;44.444;26.006;2022-09-03T08:08:10;6.72;;;4.03;;
46290;SDS011;32023;44.444;26.006;2022-09-03T08:10:39;7.03;;;4.00;;
46290;SDS011;32023;44.444;26.006;2022-09-03T08:13:13;7.65;;;4.03;;
46290;SDS011;32023;44.444;26.006;2022-09-03T08:15:52;7.00;;;3.90;;
46290;SDS011;32023;44.444;26.006;2022-09-03T08:18:24;5.60;;;4.40;;
46290;SDS011;32023;44.444;26.006;2022-09-03T08:20:58;8.60;;;3.92;;
46290;SDS011;32023;44.444;26.006;2022-09-03T08:23:28;8.18;;;4.05;;
46290;SDS011;32023;44.444;26.006;2022-09-03T08:25:58;8.40;;;3.97;;
46290;SDS011;32023;44.444;26.006;2022-09-03T08:28:45;15.15;;;4.03;;
46290;SDS011;32023;44.444;26.006;2022-09-03T08:31:21;6.22;;;4.15;;
46290;SDS011;32023;44.444;26.006;2022-09-03T08:33:51;9.02;;;4.57;;
46290;SDS011;32023;44.444;26.006;2022-09-03T08:36:46;8.48;;;4.25;;
46290;SDS011;32023;44.444;26.006;2022-09-03T08:39:13;6.25;;;3.83;;
46290;SDS011;32023;44.444;26.006;2022-09-03T08:47:18;5.82;;;3.30;;
46290;SDS011;32023;44.444;26.006;2022-09-03T08:50:00;3.58;;;2.78;;
46290;SDS011;32023;44.444;26.006;2022-09-03T08:52:29;6.07;;;3.00;;
46290;SDS011;32023;44.444;26.006;2022-09-03T08:58:17;4.50;;;2.88;;
46290;SDS011;32023;44.444;26.006;2022-09-03T09:03:41;5.50;;;2.90;;
46290;SDS011;32023;44.444;26.006;2022-09-03T09:06:22;8.27;;;3.60;;
46290;SDS011;32023;44.444;26.006;2022-09-03T09:15:07;4.13;;;2.80;;
46290;SDS011;32023;44.444;26.006;2022-09-03T09:21:08;4.32;;;2.65;;
46290;SDS011;32023;44.444;26.006;2022-09-03T09:24:16;3.47;;;2.60;;
46290;SDS011;32023;44.444;26.006;2022-09-03T09:26:48;5.38;;;2.58;;
46290;SDS011;32023;44.444;26.006;2022-09-03T09:29:45;5.03;;;2.45;;
46290;SDS011;32023;44.444;26.006;2022-09-03T09:32:13;5.72;;;2.50;;
46290;SDS011;32023;44.444;26.006;2022-09-03T09:37:22;4.03;;;2.00;;
46290;SDS011;32023;44.444;26.006;2022-09-03T09:39:56;3.83;;;2.10;;
46290;SDS011;32023;44.444;26.006;2022-09-03T09:42:25;4.88;;;2.05;;
46290;SDS011;32023;44.444;26.006;2022-09-03T09:44:55;3.38;;;2.60;;
46290;SDS011;32023;44.444;26.006;2022-09-03T09:47:59;4.13;;;2.58;;
46290;SDS011;32023;44.444;26.006;2022-09-03T09:50:36;3.67;;;2.42;;
46290;SDS011;32023;44.444;26.006;2022-09-03T10:00:05;4.00;;;2.45;;
46290;SDS011;32023;44.444;26.006;2022-09-03T10:02:41;2.92;;;2.35;;
46290;SDS011;32023;44.444;26.006;2022-09-03T10:05:40;3.47;;;2.00;;
46290;SDS011;32023;44.444;26.006;2022-09-03T10:08:49;3.50;;;2.03;;
46290;SDS011;32023;44.444;26.006;2022-09-03T10:11:30;4.88;;;2.60;;
46290;SDS011;32023;44.444;26.006;2022-09-03T10:16:34;7.35;;;2.40;;
46290;SDS011;32023;44.444;26.006;2022-09-03T10:19:11;4.05;;;2.40;;
46290;SDS011;32023;44.444;26.006;2022-09-03T10:21:44;3.97;;;2.47;;
46290;SDS011;32023;44.444;26.006;2022-09-03T10:27:31;3.92;;;2.47;;
46290;SDS011;32023;44.444;26.006;2022-09-03T10:29:58;5.78;;;3.00;;
46290;SDS011;32023;44.444;26.006;2022-09-03T10:32:43;5.30;;;3.08;;
46290;SDS011;32023;44.444;26.006;2022-09-03T10:44:51;6.55;;;2.72;;
46290;SDS011;32023;44.444;26.006;2022-09-03T10:49:48;6.93;;;3.25;;
46290;SDS011;32023;44.444;26.006;2022-09-03T10:52:40;4.90;;;2.70;;
46290;SDS011;32023;44.444;26.006;2022-09-03T10:58:28;10.07;;;2.95;;
46290;SDS011;32023;44.444;26.006;2022-09-03T11:01:35;4.50;;;2.88;;
46290;SDS011;32023;44.444;26.006;2022-09-03T11:07:24;6.68;;;3.60;;
46290;SDS011;32023;44.444;26.006;2022-09-03T11:10:07;8.32;;;5.28;;
46290;SDS011;32023;44.444;26.006;2022-09-03T11:13:10;11.05;;;5.75;;
46290;SDS011;32023;44.444;26.006;2022-09-03T11:15:59;4.03;;;3.05;;
46290;SDS011;32023;44.444;26.006;2022-09-03T11:18:42;2.97;;;2.13;;
46290;SDS011;32023;44.444;26.006;2022-09-03T11:21:33;5.10;;;3.33;;
46290;SDS011;32023;44.444;26.006;2022-09-03T11:24:11;6.30;;;3.28;;
46290;SDS011;32023;44.444;26.006;2022-09-03T11:27:30;7.07;;;5.20;;
46290;SDS011;32023;44.444;26.006;2022-09-03T11:29:59;9.23;;;3.30;;
46290;SDS011;32023;44.444;26.006;2022-09-03T11:32:43;3.05;;;2.58;;
46290;SDS011;32023;44.444;26.006;2022-09-03T11:38:30;4.47;;;2.50;;
46290;SDS011;32023;44.444;26.006;2022-09-03T11:41:11;6.50;;;2.17;;
46290;SDS011;32023;44.444;26.006;2022-09-03T11:43:40;3.63;;;2.40;;
46290;SDS011;32023;44.444;26.006;2022-09-03T11:48:51;6.63;;;3.97;;
46290;SDS011;32023;44.444;26.006;2022-09-03T11:51:30;7.93;;;3.10;;
46290;SDS011;32023;44.444;26.006;2022-09-03T11:54:05;4.85;;;3.10;;
46290;SDS011;32023;44.444;26.006;2022-09-03T11:56:38;4.45;;;3.17;;
46290;SDS011;32023;44.444;26.006;2022-09-03T11:59:14;4.88;;;3.00;;
46290;SDS011;32023;44.444;26.006;2022-09-03T12:10:02;8.13;;;3.30;;
46290;SDS011;32023;44.444;26.006;2022-09-03T12:12:58;6.60;;;3.60;;
46290;SDS011;32023;44.444;26.006;2022-09-03T12:22:00;5.20;;;2.97;;
46290;SDS011;32023;44.444;26.006;2022-09-03T12:24:29;4.75;;;3.20;;
46290;SDS011;32023;44.444;26.006;2022-09-03T12:26:57;6.57;;;3.60;;
46290;SDS011;32023;44.444;26.006;2022-09-03T12:29:25;6.00;;;3.05;;
46290;SDS011;32023;44.444;26.006;2022-09-03T12:32:04;3.90;;;2.90;;
46290;SDS011;32023;44.444;26.006;2022-09-03T12:34:32;4.10;;;2.50;;
46290;SDS011;32023;44.444;26.006;2022-09-03T12:40:15;4.03;;;2.38;;
46290;SDS011;32023;44.444;26.006;2022-09-03T12:43:27;7.90;;;3.03;;
46290;SDS011;32023;44.444;26.006;2022-09-03T12:57:21;4.05;;;2.30;;
46290;SDS011;32023;44.444;26.006;2022-09-03T13:00:16;5.72;;;2.35;;
46290;SDS011;32023;44.444;26.006;2022-09-03T13:02:58;3.10;;;1.80;;
46290;SDS011;32023;44.444;26.006;2022-09-03T13:05:58;4.18;;;2.25;;
46290;SDS011;32023;44.444;26.006;2022-09-03T13:09:06;7.85;;;2.53;;
46290;SDS011;32023;44.444;26.006;2022-09-03T13:15:41;4.40;;;2.33;;
46290;SDS011;32023;44.444;26.006;2022-09-03T13:22:58;4.22;;;2.80;;
46290;SDS011;32023;44.444;26.006;2022-09-03T13:26:44;3.75;;;2.38;;
46290;SDS011;32023;44.444;26.006;2022-09-03T13:48:43;3.50;;;2.72;;
46290;SDS011;32023;44.444;26.006;2022-09-03T13:54:50;4.65;;;3.28;;
46290;SDS011;32023;44.444;26.006;2022-09-03T14:00:09;6.32;;;2.63;;
46290;SDS011;32023;44.444;26.006;2022-09-03T14:02:57;6.18;;;3.25;;
46290;SDS011;32023;44.444;26.006;2022-09-03T14:16:58;6.70;;;3.05;;
46290;SDS011;32023;44.444;26.006;2022-09-03T14:20:02;5.13;;;2.95;;
46290;SDS011;32023;44.444;26.006;2022-09-03T14:26:56;7.57;;;3.03;;
46290;SDS011;32023;44.444;26.006;2022-09-03T14:29:29;4.95;;;2.63;;
46290;SDS011;32023;44.444;26.006;2022-09-03T14:44:51;12.43;;;5.15;;
46290;SDS011;32023;44.444;26.006;2022-09-03T14:50:24;6.35;;;3.88;;
46290;SDS011;32023;44.444;26.006;2022-09-03T14:56:12;5.70;;;3.38;;
46290;SDS011;32023;44.444;26.006;2022-09-03T14:59:12;7.97;;;3.47;;
46290;SDS011;32023;44.444;26.006;2022-09-03T15:05:03;5.13;;;2.60;;
46290;SDS011;32023;44.444;26.006;2022-09-03T15:11:18;5.80;;;3.83;;
46290;SDS011;32023;44.444;26.006;2022-09-03T15:13:51;5.13;;;3.20;;
46290;SDS011;32023;44.444;26.006;2022-09-03T15:16:45;7.68;;;4.10;;
46290;SDS011;32023;44.444;26.006;2022-09-03T15:37:21;13.15;;;7.57;;
46290;SDS011;32023;44.444;26.006;2022-09-03T15:40:03;13.85;;;9.48;;
46290;SDS011;32023;44.444;26.006;2022-09-03T15:42:49;11.95;;;8.07;;
46290;SDS011;32023;44.444;26.006;2022-09-03T15:47:52;10.27;;;7.72;;
46290;SDS011;32023;44.444;26.006;2022-09-03T15:56:46;8.55;;;5.32;;
46290;SDS011;32023;44.444;26.006;2022-09-03T16:15:50;5.88;;;3.50;;
46290;SDS011;32023;44.444;26.006;2022-09-03T16:26:36;10.18;;;3.10;;
46290;SDS011;32023;44.444;26.006;2022-09-03T16:29:26;5.38;;;3.00;;
46290;SDS011;32023;44.444;26.006;2022-09-03T16:35:10;5.40;;;3.13;;
46290;SDS011;32023;44.444;26.006;2022-09-03T16:37:57;9.45;;;4.32;;
46290;SDS011;32023;44.444;26.006;2022-09-03T16:43:05;6.20;;;4.50;;
46290;SDS011;32023;44.444;26.006;2022-09-03T17:11:18;5.30;;;3.25;;
46290;SDS011;32023;44.444;26.006;2022-09-03T17:27:18;4.80;;;3.00;;
46290;SDS011;32023;44.444;26.006;2022-09-03T17:30:07;5.30;;;2.90;;
46290;SDS011;32023;44.444;26.006;2022-09-03T17:48:29;4.82;;;3.50;;
46290;SDS011;32023;44.444;26.006;2022-09-03T17:57:04;5.15;;;3.33;;
46290;SDS011;32023;44.444;26.006;2022-09-03T18:06:51;8.25;;;3.42;;
46290;SDS011;32023;44.444;26.006;2022-09-03T18:09:02;6.57;;;3.10;;
46290;SDS011;32023;44.444;26.006;2022-09-03T18:14:39;8.30;;;3.38;;
46290;SDS011;32023;44.444;26.006;2022-09-03T18:20:10;4.30;;;3.10;;
46290;SDS011;32023;44.444;26.006;2022-09-03T18:26:07;3.90;;;2.97;;
46290;SDS011;32023;44.444;26.006;2022-09-03T18:29:12;9.95;;;3.88;;
46290;SDS011;32023;44.444;26.006;2022-09-03T18:32:19;5.93;;;3.88;;
46290;SDS011;32023;44.444;26.006;2022-09-03T18:35:03;5.82;;;3.78;;
46290;SDS011;32023;44.444;26.006;2022-09-03T18:37:50;9.52;;;3.78;;
46290;SDS011;32023;44.444;26.006;2022-09-03T18:47:25;5.97;;;3.63;;
46290;SDS011;32023;44.444;26.006;2022-09-03T19:01:46;8.55;;;3.65;;
46290;SDS011;32023;44.444;26.006;2022-09-03T19:14:07;8.15;;;3.83;;
46290;SDS011;32023;44.444;26.006;2022-09-03T19:17:04;5.38;;;3.50;;
46290;SDS011;32023;44.444;26.006;2022-09-03T19:23:13;8.52;;;3.90;;
46290;SDS011;32023;44.444;26.006;2022-09-03T19:32:16;6.30;;;3.38;;
46290;SDS011;32023;44.444;26.006;2022-09-03T19:38:12;4.80;;;3.95;;
46290;SDS011;32023;44.444;26.006;2022-09-03T19:41:18;7.07;;;4.35;;
46290;SDS011;32023;44.444;26.006;2022-09-03T19:47:21;5.28;;;4.10;;
46290;SDS011;32023;44.444;26.006;2022-09-03T19:50:24;5.50;;;4.03;;
46290;SDS011;32023;44.444;26.006;2022-09-03T19:53:17;9.35;;;3.72;;
46290;SDS011;32023;44.444;26.006;2022-09-03T19:56:08;7.35;;;3.75;;
46290;SDS011;32023;44.444;26.006;2022-09-03T19:59:16;6.60;;;3.95;;
46290;SDS011;32023;44.444;26.006;2022-09-03T20:02:07;9.02;;;4.00;;
46290;SDS011;32023;44.444;26.006;2022-09-03T20:07:45;8.60;;;4.78;;
46290;SDS011;32023;44.444;26.006;2022-09-03T20:10:37;5.67;;;4.03;;
46290;SDS011;32023;44.444;26.006;2022-09-03T20:18:33;5.22;;;3.83;;
46290;SDS011;32023;44.444;26.006;2022-09-03T20:21:21;7.38;;;4.10;;
46290;SDS011;32023;44.444;26.006;2022-09-03T20:24:18;7.00;;;4.63;;
46290;SDS011;32023;44.444;26.006;2022-09-03T20:38:46;8.13;;;4.43;;
46290;SDS011;32023;44.444;26.006;2022-09-03T20:53:12;7.80;;;4.20;;
46290;SDS011;32023;44.444;26.006;2022-09-03T20:55:51;9.80;;;4.53;;
46290;SDS011;32023;44.444;26.006;2022-09-03T20:58:24;6.72;;;4.38;;
46290;SDS011;32023;44.444;26.006;2022-09-03T21:10:20;5.68;;;3.95;;
46290;SDS011;32023;44.444;26.006;2022-09-03T21:18:36;7.28;;;4.57;;
46290;SDS011;32023;44.444;26.006;2022-09-03T21:21:15;8.85;;;4.45;;
46290;SDS011;32023;44.444;26.006;2022-09-03T21:24:07;4.75;;;3.85;;
46290;SDS011;32023;44.444;26.006;2022-09-03T21:26:54;6.53;;;4.18;;
46290;SDS011;32023;44.444;26.006;2022-09-03T21:29:27;8.90;;;4.97;;
46290;SDS011;32023;44.444;26.006;2022-09-03T21:32:17;8.00;;;4.65;;
46290;SDS011;32023;44.444;26.006;2022-09-03T21:37:33;13.30;;;5.88;;
46290;SDS011;32023;44.444;26.006;2022-09-03T21:42:47;6.85;;;4.18;;
46290;SDS011;32023;44.444;26.006;2022-09-03T21:48:15;7.35;;;3.97;;
46290;SDS011;32023;44.444;26.006;2022-09-03T21:54:20;8.38;;;4.20;;
46290;SDS011;32023;44.444;26.006;2022-09-03T21:59:49;7.53;;;4.35;;
46290;SDS011;32023;44.444;26.006;2022-09-03T22:02:33;10.20;;;4.75;;
46290;SDS011;32023;44.444;26.006;2022-09-03T22:05:07;6.40;;;4.00;;
46290;SDS011;32023;44.444;26.006;2022-09-03T22:13:29;7.18;;;4.05;;
46290;SDS011;32023;44.444;26.006;2022-09-03T22:16:25;8.57;;;4.60;;
46290;SDS011;32023;44.444;26.006;2022-09-03T22:19:11;7.60;;;4.60;;
46290;SDS011;32023;44.444;26.006;2022-09-03T22:21:53;7.78;;;5.15;;
46290;SDS011;32023;44.444;26.006;2022-09-03T22:24:38;9.40;;;4.22;;
46290;SDS011;32023;44.444;26.006;2022-09-03T22:51:11;12.90;;;5.38;;
46290;SDS011;32023;44.444;26.006;2022-09-03T22:56:29;5.57;;;4.53;;
46290;SDS011;32023;44.444;26.006;2022-09-03T22:59:09;7.85;;;4.93;;
46290;SDS011;32023;44.444;26.006;2022-09-03T23:04:40;8.75;;;4.68;;
46290;SDS011;32023;44.444;26.006;2022-09-03T23:07:18;9.93;;;4.90;;
46290;SDS011;32023;44.444;26.006;2022-09-03T23:10:08;9.00;;;5.65;;
46290;SDS011;32023;44.444;26.006;2022-09-03T23:12:49;6.78;;;5.30;;
46290;SDS011;32023;44.444;26.006;2022-09-03T23:18:44;8.57;;;5.18;;
46290;SDS011;32023;44.444;26.006;2022-09-03T23:26:45;4.80;;;4.30;;
46290;SDS011;32023;44.444;26.006;2022-09-03T23:29:27;12.63;;;5.05;;
46290;SDS011;32023;44.444;26.006;2022-09-03T23:32:09;5.37;;;4.80;;
46290;SDS011;32023;44.444;26.006;2022-09-03T23:34:36;5.93;;;4.40;;
46290;SDS011;32023;44.444;26.006;2022-09-03T23:37:24;5.93;;;4.07;;
46290;SDS011;32023;44.444;26.006;2022-09-03T23:40:02;8.77;;;3.97;;
46290;SDS011;32023;44.444;26.006;2022-09-03T23:49:12;5.60;;;4.30;;
46290;SDS011;32023;44.444;26.006;2022-09-03T23:52:10;6.55;;;3.78;;
46290;SDS011;32023;44.444;26.006;2022-09-03T23:54:57;6.63;;;3.95;;
46290;SDS011;32023;44.444;26.006;2022-09-03T23:57:48;6.95;;;4.22;;
